createdAt,value
2017-12-23T00:01:30.160Z,14.68
2017-12-23T00:03:58.660Z,15.93
2017-12-23T00:06:26.168Z,16.08
2017-12-23T00:08:53.699Z,15.07
2017-12-23T00:11:21.217Z,17.43
2017-12-23T00:13:48.752Z,16.55
2017-12-23T00:16:16.259Z,15.88
2017-12-23T00:18:45.317Z,14.43
2017-12-23T00:21:15.803Z,13.30
2017-12-23T00:23:45.260Z,16.08
2017-12-23T00:26:14.365Z,17.30
2017-12-23T00:28:43.611Z,17.20
2017-12-23T00:31:13.477Z,15.05
2017-12-23T00:33:41.018Z,16.48
2017-12-23T00:36:08.547Z,11.48
2017-12-23T00:38:36.067Z,14.90
2017-12-23T00:41:03.641Z,17.60
2017-12-23T00:43:31.124Z,16.37
2017-12-23T00:45:58.656Z,17.75
2017-12-23T00:48:26.178Z,14.27
2017-12-23T00:50:53.734Z,16.77
2017-12-23T00:53:21.239Z,13.52
2017-12-23T00:55:48.750Z,16.42
2017-12-23T00:58:16.286Z,15.00
2017-12-23T01:00:43.786Z,20.35
2017-12-23T01:03:11.300Z,17.25
2017-12-23T01:05:39.559Z,14.00
2017-12-23T01:08:07.064Z,14.68
2017-12-23T01:10:34.565Z,15.50
2017-12-23T01:13:02.090Z,16.60
2017-12-23T01:15:29.632Z,16.80
2017-12-23T01:17:57.156Z,11.90
2017-12-23T01:20:24.669Z,16.33
2017-12-23T01:22:52.325Z,14.38
2017-12-23T01:25:19.887Z,16.17
2017-12-23T01:27:48.446Z,14.18
2017-12-23T01:30:15.988Z,13.93
2017-12-23T01:32:43.520Z,14.13
2017-12-23T01:35:11.128Z,15.98
2017-12-23T01:37:39.406Z,16.20
2017-12-23T01:40:06.939Z,13.30
2017-12-23T01:42:34.462Z,12.27
2017-12-23T01:45:01.999Z,15.30
2017-12-23T01:47:30.280Z,14.87
2017-12-23T01:49:58.577Z,14.73
2017-12-23T01:52:26.087Z,11.90
2017-12-23T01:54:53.595Z,15.45
2017-12-23T01:57:21.146Z,20.43
2017-12-23T01:59:48.643Z,14.57
2017-12-23T02:02:16.175Z,14.05
2017-12-23T02:04:43.696Z,11.80
2017-12-23T02:07:11.196Z,15.50
2017-12-23T02:09:38.787Z,9.40
2017-12-23T02:12:06.370Z,11.75
2017-12-23T02:14:33.874Z,16.75
2017-12-23T02:17:01.418Z,16.50
2017-12-23T02:19:29.690Z,13.62
2017-12-23T02:21:58.735Z,14.52
2017-12-23T02:24:26.274Z,13.25
2017-12-23T02:26:53.794Z,13.85
2017-12-23T02:29:21.300Z,16.62
2017-12-23T02:31:48.815Z,16.90
2017-12-23T02:34:17.102Z,16.75
2017-12-23T02:36:45.382Z,17.50
2017-12-23T02:39:13.723Z,16.73
2017-12-23T02:41:41.238Z,14.30
2017-12-23T02:44:08.735Z,17.62
2017-12-23T02:46:36.331Z,17.70
2017-12-23T02:49:03.835Z,16.62
2017-12-23T02:51:31.362Z,19.00
2017-12-23T02:53:59.629Z,17.80
2017-12-23T02:56:27.914Z,19.98
2017-12-23T02:58:55.423Z,17.10
2017-12-23T03:01:22.925Z,16.45
2017-12-23T03:03:50.448Z,16.05
2017-12-23T03:06:17.976Z,18.23
2017-12-23T03:08:45.549Z,17.77
2017-12-23T03:11:13.068Z,18.37
2017-12-23T03:13:40.578Z,17.07
2017-12-23T03:16:08.112Z,18.00
2017-12-23T03:18:35.668Z,18.15
2017-12-23T03:21:03.196Z,18.27
2017-12-23T03:23:30.702Z,19.05
2017-12-23T03:25:58.217Z,18.00
2017-12-23T03:28:26.480Z,18.20
2017-12-23T03:30:54.767Z,17.52
2017-12-23T03:33:23.089Z,18.52
2017-12-23T03:35:50.611Z,16.17
2017-12-23T03:38:18.170Z,16.02
2017-12-23T03:40:46.452Z,18.00
2017-12-23T03:43:15.875Z,17.60
2017-12-23T03:45:43.416Z,19.15
2017-12-23T03:48:11.699Z,18.17
2017-12-23T03:50:39.970Z,20.40
2017-12-23T03:53:08.300Z,17.10
2017-12-23T03:55:35.832Z,18.62
2017-12-23T03:58:03.358Z,17.65
2017-12-23T04:00:31.677Z,18.35
2017-12-23T04:02:59.175Z,15.48
2017-12-23T04:05:26.675Z,18.27
2017-12-23T04:07:54.176Z,13.20
2017-12-23T04:10:21.665Z,16.65
2017-12-23T04:12:49.190Z,15.45
2017-12-23T04:15:16.714Z,14.33
2017-12-23T04:17:44.234Z,16.70
2017-12-23T04:20:12.533Z,15.77
2017-12-23T04:22:40.042Z,16.58
2017-12-23T04:25:07.546Z,16.77
2017-12-23T04:27:35.062Z,14.98
2017-12-23T04:30:02.561Z,18.27
2017-12-23T04:32:30.921Z,15.90
2017-12-23T04:34:58.427Z,14.10
2017-12-23T04:37:25.935Z,20.75
2017-12-23T04:39:53.479Z,17.15
2017-12-23T04:42:20.967Z,19.93
2017-12-23T04:44:48.459Z,17.73
2017-12-23T04:47:15.979Z,17.30
2017-12-23T04:49:44.298Z,18.98
2017-12-23T04:52:11.803Z,16.77
2017-12-23T04:54:39.327Z,16.67
2017-12-23T04:57:06.857Z,17.10
2017-12-23T04:59:34.357Z,17.17
2017-12-23T05:08:46.893Z,15.18
2017-12-23T05:11:15.361Z,17.30
2017-12-23T05:13:42.903Z,16.90
2017-12-23T05:16:10.415Z,15.73
2017-12-23T05:18:37.914Z,15.70
2017-12-23T05:21:05.419Z,17.30
2017-12-23T05:23:32.930Z,15.55
2017-12-23T05:26:00.448Z,17.00
2017-12-23T05:28:27.964Z,18.30
2017-12-23T05:30:55.495Z,15.18
2017-12-23T05:33:23.118Z,15.25
2017-12-23T05:35:50.624Z,14.15
2017-12-23T05:38:18.132Z,16.62
2017-12-23T05:40:45.641Z,15.27
2017-12-23T05:43:13.913Z,17.73
2017-12-23T05:45:42.176Z,14.48
2017-12-23T05:48:09.679Z,17.30
2017-12-23T05:50:37.187Z,15.82
2017-12-23T05:53:04.679Z,23.12
2017-12-23T05:55:32.208Z,18.20
2017-12-23T05:57:59.715Z,16.92
2017-12-23T06:00:27.228Z,18.87
2017-12-23T06:02:54.732Z,17.37
2017-12-23T06:05:22.243Z,18.20
2017-12-23T06:07:49.758Z,16.80
2017-12-23T06:10:17.250Z,18.77
2017-12-23T06:12:44.766Z,21.58
2017-12-23T06:15:12.278Z,20.08
2017-12-23T06:17:40.583Z,25.50
2017-12-23T06:20:08.104Z,22.13
2017-12-23T06:22:35.630Z,23.00
2017-12-23T06:25:03.144Z,26.10
2017-12-23T06:27:31.430Z,24.95
2017-12-23T06:29:59.772Z,30.25
2017-12-23T06:32:27.268Z,32.10
2017-12-23T06:34:54.761Z,24.05
2017-12-23T06:37:22.303Z,28.12
2017-12-23T06:39:49.824Z,27.45
2017-12-23T06:42:17.333Z,26.35
2017-12-23T06:44:44.839Z,28.70
2017-12-23T06:47:12.348Z,27.70
2017-12-23T06:49:39.893Z,29.90
2017-12-23T06:52:07.409Z,27.85
2017-12-23T06:54:34.941Z,32.65
2017-12-23T06:57:02.452Z,28.23
2017-12-23T06:59:29.961Z,30.23
2017-12-23T07:01:57.472Z,32.20
2017-12-23T07:04:25.742Z,31.95
2017-12-23T07:06:54.020Z,30.33
2017-12-23T07:09:22.301Z,35.03
2017-12-23T07:11:50.591Z,29.87
2017-12-23T07:14:18.103Z,35.60
2017-12-23T07:16:45.605Z,30.50
2017-12-23T07:19:13.102Z,31.90
2017-12-23T07:21:40.616Z,36.20
2017-12-23T07:24:08.880Z,35.08
2017-12-23T07:26:36.375Z,34.92
2017-12-23T07:29:03.875Z,35.93
2017-12-23T07:31:31.371Z,31.75
2017-12-23T07:33:58.927Z,33.50
2017-12-23T07:36:26.406Z,33.28
2017-12-23T07:38:53.897Z,37.53
2017-12-23T07:41:21.443Z,33.15
2017-12-23T07:43:48.969Z,33.28
2017-12-23T07:46:16.479Z,29.10
2017-12-23T07:48:44.015Z,30.67
2017-12-23T07:51:11.552Z,33.67
2017-12-23T07:53:39.829Z,34.10
2017-12-23T07:56:08.096Z,28.20
2017-12-23T07:58:36.412Z,26.52
2017-12-23T08:01:03.916Z,29.90
2017-12-23T08:03:31.427Z,31.87
2017-12-23T08:05:58.944Z,25.20
2017-12-23T08:08:26.440Z,29.83
2017-12-23T08:10:53.955Z,30.23
2017-12-23T08:13:21.458Z,25.40
2017-12-23T08:15:48.987Z,28.70
2017-12-23T08:18:17.303Z,24.48
2017-12-23T08:20:44.794Z,25.00
2017-12-23T08:23:12.334Z,32.40
2017-12-23T08:25:39.834Z,26.23
2017-12-23T08:28:07.331Z,25.25
2017-12-23T08:30:34.866Z,25.35
2017-12-23T08:33:03.144Z,26.98
2017-12-23T08:35:30.682Z,22.60
2017-12-23T08:37:58.195Z,25.17
2017-12-23T08:40:25.720Z,25.45
2017-12-23T08:42:53.251Z,24.03
2017-12-23T08:45:20.770Z,19.83
2017-12-23T08:47:48.271Z,24.77
2017-12-23T08:50:15.769Z,21.42
2017-12-23T08:52:43.281Z,19.20
2017-12-23T08:55:10.804Z,24.50
2017-12-23T08:57:38.334Z,23.20
2017-12-23T09:00:05.864Z,22.27
2017-12-23T09:02:33.381Z,22.85
2017-12-23T09:05:00.925Z,23.95
2017-12-23T09:07:28.446Z,22.50
2017-12-23T09:09:55.945Z,25.62
2017-12-23T09:12:24.234Z,24.33
2017-12-23T09:14:51.812Z,27.30
2017-12-23T09:17:19.322Z,24.12
2017-12-23T09:19:46.827Z,22.87
2017-12-23T09:22:14.345Z,22.77
2017-12-23T09:24:41.865Z,23.25
2017-12-23T09:27:09.361Z,22.25
2017-12-23T09:29:37.662Z,22.10
2017-12-23T09:32:05.170Z,27.45
2017-12-23T09:34:32.724Z,23.73
2017-12-23T09:37:00.251Z,24.20
2017-12-23T09:39:27.755Z,24.08
2017-12-23T09:41:55.265Z,23.02
2017-12-23T09:44:22.764Z,23.33
2017-12-23T09:46:50.304Z,21.98
2017-12-23T09:49:17.810Z,20.85
2017-12-23T09:51:45.335Z,23.10
2017-12-23T09:54:12.838Z,21.70
2017-12-23T09:56:41.121Z,21.42
2017-12-23T09:59:09.406Z,18.42
2017-12-23T10:01:36.915Z,21.20
2017-12-23T10:04:04.426Z,17.05
2017-12-23T10:06:31.936Z,17.58
2017-12-23T10:08:59.435Z,18.48
2017-12-23T10:11:27.816Z,19.62
2017-12-23T10:13:55.394Z,20.55
2017-12-23T10:16:22.916Z,20.88
2017-12-23T10:18:50.453Z,18.50
2017-12-23T10:21:17.981Z,18.67
2017-12-23T10:23:45.518Z,17.05
2017-12-23T10:26:13.015Z,19.12
2017-12-23T10:28:41.306Z,16.37
2017-12-23T10:31:08.812Z,14.43
2017-12-23T10:33:37.158Z,14.75
2017-12-23T10:36:04.692Z,12.70
2017-12-23T10:38:32.190Z,11.45
2017-12-23T10:41:00.515Z,11.75
2017-12-23T10:43:28.045Z,6.60
2017-12-23T10:45:55.568Z,9.77
2017-12-23T10:48:23.078Z,12.23
2017-12-23T10:50:50.614Z,10.18
2017-12-23T10:53:18.110Z,11.07
2017-12-23T10:55:45.647Z,9.15
2017-12-23T10:58:13.162Z,9.75
2017-12-23T11:00:40.714Z,5.72
2017-12-23T11:03:08.181Z,14.35
2017-12-23T11:05:38.966Z,7.50
2017-12-23T11:08:09.510Z,5.32
2017-12-23T11:10:40.301Z,7.18
2017-12-23T11:13:10.730Z,6.75
2017-12-23T11:15:40.334Z,6.22
2017-12-23T11:18:09.056Z,4.87
2017-12-23T11:20:37.746Z,5.18
2017-12-23T11:23:05.268Z,4.28
2017-12-23T11:25:32.901Z,5.43
2017-12-23T11:28:00.538Z,4.78
2017-12-23T11:30:28.032Z,5.28
2017-12-23T11:32:55.529Z,6.68
2017-12-23T11:35:23.045Z,4.28
2017-12-23T11:37:50.555Z,3.97
2017-12-23T11:40:18.195Z,6.72
2017-12-23T11:42:46.468Z,5.03
2017-12-23T11:45:13.968Z,5.85
2017-12-23T11:47:41.511Z,4.12
2017-12-23T11:50:09.033Z,7.03
2017-12-23T11:52:36.541Z,5.45
2017-12-23T11:55:04.061Z,5.03
2017-12-23T11:57:32.340Z,4.57
2017-12-23T11:59:59.839Z,4.70
2017-12-23T12:02:27.331Z,5.70
2017-12-23T12:04:55.674Z,4.72
2017-12-23T12:07:24.030Z,4.37
2017-12-23T12:09:52.291Z,4.43
2017-12-23T12:12:20.570Z,4.85
2017-12-23T12:14:48.064Z,4.57
2017-12-23T12:17:15.582Z,4.35
2017-12-23T12:19:43.071Z,6.15
2017-12-23T12:22:10.562Z,3.87
2017-12-23T12:24:38.492Z,4.90
2017-12-23T12:27:06.750Z,3.58
2017-12-23T12:29:35.032Z,3.50
2017-12-23T12:32:03.339Z,7.20
2017-12-23T12:34:31.086Z,5.53
2017-12-23T12:36:58.602Z,4.35
2017-12-23T12:39:26.119Z,4.68
2017-12-23T12:41:53.610Z,3.20
2017-12-23T12:44:21.113Z,5.47
2017-12-23T12:46:49.379Z,4.85
2017-12-23T12:49:16.897Z,4.32
2017-12-23T12:51:44.397Z,3.37
2017-12-23T12:54:11.998Z,6.18
2017-12-23T12:56:39.499Z,4.93
2017-12-23T12:59:07.019Z,4.75
2017-12-23T13:01:34.515Z,3.35
2017-12-23T13:04:02.023Z,3.95
2017-12-23T13:06:29.527Z,5.32
2017-12-23T13:08:57.803Z,4.20
2017-12-23T13:11:25.299Z,4.50
2017-12-23T13:13:53.574Z,8.10
2017-12-23T13:16:21.832Z,4.85
2017-12-23T13:18:49.339Z,5.25
2017-12-23T13:21:16.868Z,7.60
